Glade Hill, Virginia
Current Conditions -  °F | °C
As of 8:54 AM on Friday 28 Nov 2014 (Local Time) from KROA Reporting Station
Broken Clouds Broken Clouds  
Wind Chill: 26°   Ceiling: 3900
Heat Index: 32°   Visibility: 10mi
Dew Point: 17°   Wind: 6mph
Humidity: 54%   Direction: 300°WNW
Pressure: 30.35"   Gusts: NA
Location:  37.0073°N, 79.7681°W
Report Text: KROA 281354Z 30005KT 10SM BKN039 00/M08 A3035 RMK AO2 SLP288 T00001083
Loading
Personal Weather Stations






























Interactive Weather Map New forecast layout! Learn more

10-Day Weather Forecast

Advertisements
Track Severe Weather on mobile